createdAt,value
2022-10-08T00:00:18.552Z,14.80
2022-10-08T00:03:05.029Z,14.70
2022-10-08T00:05:58.013Z,14.60
2022-10-08T00:08:49.317Z,14.50
2022-10-08T00:11:39.551Z,14.40
2022-10-08T00:14:26.081Z,14.40
2022-10-08T00:17:12.534Z,14.40
2022-10-08T00:19:58.893Z,14.50
2022-10-08T00:22:45.658Z,14.50
2022-10-08T00:25:32.693Z,14.70
2022-10-08T00:28:20.599Z,14.80
2022-10-08T00:31:09.355Z,14.80
2022-10-08T00:33:57.551Z,14.80
2022-10-08T00:36:44.596Z,14.90
2022-10-08T00:39:31.070Z,14.70
2022-10-08T00:42:17.519Z,14.70
2022-10-08T00:45:06.336Z,14.80
2022-10-08T00:47:56.199Z,14.80
2022-10-08T00:50:42.940Z,14.90
2022-10-08T00:53:30.127Z,14.90
2022-10-08T00:56:16.800Z,14.80
2022-10-08T00:59:03.749Z,14.60
2022-10-08T01:01:53.527Z,14.50
2022-10-08T01:04:43.085Z,14.60
2022-10-08T01:07:35.943Z,14.50
2022-10-08T01:10:32.627Z,14.70
2022-10-08T01:13:31.707Z,14.50
2022-10-08T01:16:26.914Z,14.60
2022-10-08T01:19:47.351Z,14.60
2022-10-08T01:22:53.886Z,14.60
2022-10-08T01:25:53.358Z,14.60
2022-10-08T01:28:44.732Z,14.50
2022-10-08T01:31:36.075Z,14.20
2022-10-08T01:34:28.368Z,14.30
2022-10-08T01:37:22.269Z,14.40
2022-10-08T01:40:17.521Z,14.40
2022-10-08T01:43:07.516Z,14.40
2022-10-08T01:45:59.923Z,14.40
2022-10-08T01:48:53.315Z,14.50
2022-10-08T01:51:45.317Z,14.60
2022-10-08T01:54:34.013Z,14.50
2022-10-08T01:57:20.437Z,14.60
2022-10-08T02:00:09.355Z,14.60
2022-10-08T02:03:00.176Z,14.60
2022-10-08T02:05:51.245Z,14.70
2022-10-08T02:08:37.857Z,14.90
2022-10-08T02:11:24.250Z,14.90
2022-10-08T02:14:11.700Z,15.00
2022-10-08T02:17:08.119Z,15.10
2022-10-08T02:20:01.052Z,15.20
2022-10-08T02:22:58.746Z,15.20
2022-10-08T02:25:50.630Z,15.30
2022-10-08T02:28:44.987Z,15.30
2022-10-08T02:31:38.059Z,15.30
2022-10-08T02:34:29.877Z,15.40
2022-10-08T02:37:21.568Z,15.40
2022-10-08T02:40:11.240Z,15.50
2022-10-08T02:43:02.453Z,15.50
2022-10-08T02:45:53.922Z,15.70
2022-10-08T02:48:45.187Z,15.60
2022-10-08T02:51:32.967Z,15.60
2022-10-08T02:54:24.764Z,15.60
2022-10-08T02:57:15.615Z,15.50
2022-10-08T03:00:02.737Z,15.60
2022-10-08T03:02:56.694Z,15.60
2022-10-08T03:05:44.821Z,15.60
2022-10-08T03:08:32.246Z,15.70
2022-10-08T03:11:20.074Z,15.60
2022-10-08T03:14:10.791Z,15.60
2022-10-08T03:16:57.351Z,15.70
2022-10-08T03:19:44.056Z,15.70
2022-10-08T03:22:31.561Z,15.70
2022-10-08T03:25:18.237Z,15.70
2022-10-08T03:28:06.141Z,15.70
2022-10-08T03:30:52.937Z,15.80
2022-10-08T03:33:39.208Z,15.70
2022-10-08T03:36:26.685Z,15.70
2022-10-08T03:39:13.732Z,15.70
2022-10-08T03:42:00.140Z,15.60
2022-10-08T03:44:47.902Z,15.60
2022-10-08T03:47:34.287Z,15.60
2022-10-08T03:50:21.644Z,15.60
2022-10-08T03:53:08.118Z,15.60
2022-10-08T03:55:55.095Z,15.60
2022-10-08T03:58:41.738Z,15.60
2022-10-08T04:01:29.897Z,15.60
2022-10-08T04:04:16.640Z,15.60
2022-10-08T04:07:03.034Z,15.50
2022-10-08T04:09:49.402Z,15.60
2022-10-08T04:12:35.748Z,15.50
2022-10-08T04:15:22.052Z,15.50
2022-10-08T04:18:12.709Z,15.50
2022-10-08T04:21:00.029Z,15.50
2022-10-08T04:23:49.176Z,15.50
2022-10-08T04:26:35.751Z,15.60
2022-10-08T04:29:22.017Z,15.50
2022-10-08T04:32:08.493Z,15.50
2022-10-08T04:34:56.220Z,15.60
2022-10-08T04:37:42.749Z,15.50
2022-10-08T04:40:29.181Z,15.40
2022-10-08T04:43:16.469Z,15.40
2022-10-08T04:46:03.599Z,15.50
2022-10-08T04:48:52.300Z,15.50
2022-10-08T04:51:40.491Z,15.40
2022-10-08T04:54:27.459Z,15.40
2022-10-08T04:57:13.889Z,15.50
2022-10-08T05:00:18.254Z,15.40
2022-10-08T05:03:05.848Z,15.40
2022-10-08T05:05:52.539Z,15.40
2022-10-08T05:08:40.228Z,15.40
2022-10-08T05:11:28.202Z,15.40
2022-10-08T05:14:14.761Z,15.40
2022-10-08T05:17:01.136Z,15.30
2022-10-08T05:19:47.514Z,15.30
2022-10-08T05:22:34.275Z,15.30
2022-10-08T05:25:22.282Z,15.30
2022-10-08T05:28:09.092Z,15.40
2022-10-08T05:31:00.748Z,15.40
2022-10-08T05:33:47.525Z,15.30
2022-10-08T05:36:35.093Z,15.30
2022-10-08T05:39:21.849Z,15.30
2022-10-08T05:42:09.691Z,15.30
2022-10-08T05:44:56.368Z,15.30
2022-10-08T05:47:42.583Z,15.40
2022-10-08T05:50:29.295Z,15.30
2022-10-08T05:53:15.808Z,15.20
2022-10-08T05:56:02.773Z,15.20
2022-10-08T05:58:51.856Z,15.20
2022-10-08T06:01:38.367Z,15.10
2022-10-08T06:04:24.799Z,15.20
2022-10-08T06:07:11.676Z,15.10
2022-10-08T06:09:58.176Z,15.20
2022-10-08T06:12:44.952Z,15.20
2022-10-08T06:15:32.852Z,15.30
2022-10-08T06:18:19.313Z,15.30
2022-10-08T06:21:07.872Z,15.30
2022-10-08T06:23:56.300Z,15.20
2022-10-08T06:26:44.397Z,15.20
2022-10-08T06:29:31.055Z,15.30
2022-10-08T06:32:18.971Z,15.40
2022-10-08T06:35:06.023Z,15.40
2022-10-08T06:37:52.923Z,15.50
2022-10-08T06:40:40.801Z,15.60
2022-10-08T06:43:27.750Z,15.60
2022-10-08T06:46:14.800Z,15.70
2022-10-08T06:49:03.084Z,15.70
2022-10-08T06:51:49.637Z,15.70
2022-10-08T06:54:36.112Z,15.80
2022-10-08T06:57:22.505Z,15.80
2022-10-08T07:00:10.196Z,15.80
2022-10-08T07:02:57.817Z,15.90
2022-10-08T07:05:45.934Z,16.00
2022-10-08T07:08:32.611Z,16.10
2022-10-08T07:11:20.171Z,16.20
2022-10-08T07:14:06.684Z,16.30
2022-10-08T07:16:53.161Z,16.30
2022-10-08T07:19:39.940Z,16.50
2022-10-08T07:22:28.118Z,16.70
2022-10-08T07:25:14.853Z,16.80
2022-10-08T07:28:01.251Z,17.00
2022-10-08T07:30:47.635Z,17.20
2022-10-08T07:33:34.141Z,17.30
2022-10-08T07:36:22.152Z,17.30
2022-10-08T07:39:12.907Z,17.50
2022-10-08T07:41:59.488Z,17.60
2022-10-08T07:44:46.076Z,17.80
2022-10-08T07:47:32.564Z,17.80
2022-10-08T07:50:19.062Z,17.60
2022-10-08T07:53:05.508Z,17.50
2022-10-08T07:55:53.170Z,17.40
2022-10-08T07:58:40.132Z,17.70
2022-10-08T08:01:29.559Z,18.10
2022-10-08T08:04:16.168Z,18.20
2022-10-08T08:07:02.562Z,18.40
2022-10-08T08:09:49.143Z,18.60
2022-10-08T08:12:36.992Z,18.80
2022-10-08T08:15:23.721Z,19.10
2022-10-08T08:18:10.242Z,19.20
2022-10-08T08:21:00.256Z,19.20
2022-10-08T08:23:48.437Z,19.10
2022-10-08T08:26:36.764Z,18.80
2022-10-08T08:29:24.953Z,18.40
2022-10-08T08:32:11.671Z,18.40
2022-10-08T08:34:58.331Z,18.20
2022-10-08T08:37:45.010Z,18.20
2022-10-08T08:40:31.798Z,18.80
2022-10-08T08:43:18.203Z,19.80
2022-10-08T08:46:06.692Z,20.50
2022-10-08T08:48:58.595Z,20.40
2022-10-08T08:51:45.144Z,19.90
2022-10-08T08:54:32.011Z,19.60
2022-10-08T08:57:34.920Z,19.70
2022-10-08T09:00:25.052Z,19.80
2022-10-08T09:03:20.033Z,20.00
2022-10-08T09:06:09.986Z,20.10
2022-10-08T09:09:00.324Z,20.00
2022-10-08T09:11:47.632Z,19.90
2022-10-08T09:14:39.327Z,19.70
2022-10-08T09:17:31.905Z,19.90
2022-10-08T09:20:22.423Z,20.10
2022-10-08T09:23:14.775Z,20.20
2022-10-08T09:26:05.044Z,20.00
2022-10-08T09:28:53.915Z,19.60
2022-10-08T09:31:46.646Z,19.30
2022-10-08T09:34:33.288Z,19.60
2022-10-08T09:37:24.936Z,20.00
2022-10-08T09:40:21.737Z,20.20
2022-10-08T09:43:14.726Z,20.60
2022-10-08T09:46:05.552Z,20.90
2022-10-08T09:48:52.328Z,21.30
2022-10-08T09:51:38.759Z,21.30
2022-10-08T09:54:29.021Z,21.40
2022-10-08T09:57:17.941Z,21.60
2022-10-08T10:00:10.436Z,21.30
2022-10-08T10:02:58.564Z,21.50
2022-10-08T10:05:52.325Z,21.60
2022-10-08T10:08:53.969Z,21.80
2022-10-08T10:11:47.902Z,21.70
2022-10-08T10:14:43.762Z,21.90
2022-10-08T10:17:36.648Z,22.10
2022-10-08T10:20:28.332Z,22.20
2022-10-08T10:23:18.382Z,22.30
2022-10-08T10:26:09.946Z,22.40
2022-10-08T10:29:00.153Z,22.40
2022-10-08T10:31:50.237Z,22.80
2022-10-08T10:34:40.609Z,22.40
2022-10-08T10:37:33.981Z,21.60
2022-10-08T10:40:43.616Z,20.80
2022-10-08T10:43:45.294Z,20.30
2022-10-08T10:46:41.284Z,19.70
2022-10-08T10:49:34.659Z,19.60
2022-10-08T10:52:39.487Z,19.80
2022-10-08T10:55:32.545Z,19.70
2022-10-08T10:58:30.980Z,19.40
2022-10-08T11:01:28.481Z,19.20
2022-10-08T11:04:25.573Z,19.20
2022-10-08T11:07:29.766Z,19.20
2022-10-08T11:10:30.820Z,19.10
2022-10-08T11:13:37.598Z,19.70
2022-10-08T11:16:36.872Z,20.10
2022-10-08T11:19:38.760Z,20.10
2022-10-08T11:22:31.912Z,19.90
2022-10-08T11:25:27.185Z,19.70
2022-10-08T11:28:26.178Z,19.50
2022-10-08T11:31:24.687Z,19.50
2022-10-08T11:34:22.880Z,19.50
2022-10-08T11:37:16.582Z,19.50
2022-10-08T11:40:15.208Z,19.30
2022-10-08T11:43:08.177Z,19.10
2022-10-08T11:46:28.627Z,19.00
2022-10-08T11:49:54.117Z,19.10
2022-10-08T11:52:42.135Z,19.50
2022-10-08T11:55:31.660Z,19.60
2022-10-08T11:58:23.736Z,19.40
2022-10-08T12:01:10.916Z,19.30
2022-10-08T12:04:05.768Z,19.10
2022-10-08T12:07:19.216Z,19.00
2022-10-08T12:10:30.862Z,19.30
2022-10-08T12:13:30.501Z,19.80
2022-10-08T12:16:17.239Z,20.30
2022-10-08T12:19:04.172Z,20.90
2022-10-08T12:21:51.596Z,20.70
2022-10-08T12:24:53.952Z,20.70
2022-10-08T12:27:42.358Z,20.70
2022-10-08T12:30:48.204Z,20.80
2022-10-08T12:33:34.945Z,20.40
2022-10-08T12:36:29.544Z,20.00
2022-10-08T12:39:28.692Z,19.80
2022-10-08T12:42:20.799Z,19.50
2022-10-08T12:45:19.669Z,19.50
2022-10-08T12:48:13.125Z,19.30
2022-10-08T12:51:10.484Z,19.20
2022-10-08T12:53:57.745Z,19.10
2022-10-08T12:56:44.778Z,19.10
2022-10-08T12:59:32.971Z,19.00
2022-10-08T13:02:37.765Z,19.10
2022-10-08T13:05:27.387Z,19.10
2022-10-08T13:08:33.329Z,19.20
2022-10-08T13:11:20.767Z,19.10
2022-10-08T13:14:07.194Z,19.10
2022-10-08T13:16:53.968Z,19.10
2022-10-08T13:19:42.139Z,19.30
2022-10-08T13:22:31.721Z,19.30
2022-10-08T13:25:38.458Z,19.30
2022-10-08T13:28:48.304Z,19.30
2022-10-08T13:31:34.652Z,19.20
2022-10-08T13:34:22.485Z,19.20
2022-10-08T13:37:15.134Z,19.10
2022-10-08T13:40:04.452Z,19.00
2022-10-08T13:42:53.342Z,19.00
2022-10-08T13:45:40.538Z,19.10
2022-10-08T13:48:27.056Z,19.20
2022-10-08T13:51:13.563Z,19.30
2022-10-08T13:54:01.689Z,19.30
2022-10-08T13:56:48.129Z,19.30
2022-10-08T13:59:34.807Z,19.10
2022-10-08T14:02:21.450Z,19.10
2022-10-08T14:05:08.751Z,19.00
2022-10-08T14:07:59.163Z,19.00
2022-10-08T14:10:47.477Z,19.10
2022-10-08T14:13:34.312Z,19.10
2022-10-08T14:16:20.661Z,19.00
2022-10-08T14:19:12.005Z,19.00
2022-10-08T14:21:59.285Z,19.00
2022-10-08T14:24:46.280Z,19.00
2022-10-08T14:27:34.356Z,18.90
2022-10-08T14:30:21.119Z,18.70
2022-10-08T14:33:11.434Z,18.70
2022-10-08T14:35:58.462Z,18.70
2022-10-08T14:38:44.976Z,18.70
2022-10-08T14:41:31.874Z,18.70
2022-10-08T14:44:22.302Z,18.70
2022-10-08T14:47:08.783Z,18.60
2022-10-08T14:49:56.171Z,18.70
2022-10-08T14:52:44.630Z,18.70
2022-10-08T14:55:31.253Z,18.60
2022-10-08T14:58:17.646Z,18.60
2022-10-08T15:01:05.521Z,18.60
2022-10-08T15:03:52.224Z,18.60
2022-10-08T15:06:39.124Z,18.50
2022-10-08T15:09:25.493Z,18.50
2022-10-08T15:12:11.945Z,18.50
2022-10-08T15:14:58.333Z,18.60
2022-10-08T15:17:46.579Z,18.60
2022-10-08T15:20:34.873Z,18.60
2022-10-08T15:23:21.647Z,18.70
2022-10-08T15:26:11.940Z,18.70
2022-10-08T15:28:58.291Z,18.60
2022-10-08T15:31:44.759Z,18.50
2022-10-08T15:34:33.087Z,18.40
2022-10-08T15:37:19.440Z,18.40
2022-10-08T15:40:06.923Z,18.40
2022-10-08T15:42:53.679Z,18.40
2022-10-08T15:45:43.057Z,18.30
2022-10-08T15:48:29.467Z,18.20
2022-10-08T15:51:17.284Z,18.00
2022-10-08T15:54:04.632Z,18.00
2022-10-08T15:56:51.374Z,18.00
2022-10-08T15:59:38.145Z,18.00
2022-10-08T16:02:25.007Z,17.90
2022-10-08T16:05:14.023Z,17.90
2022-10-08T16:08:01.679Z,17.80
2022-10-08T16:10:48.024Z,17.80
2022-10-08T16:13:34.504Z,17.80
2022-10-08T16:16:22.021Z,17.90
2022-10-08T16:19:11.755Z,17.80
2022-10-08T16:21:59.451Z,17.80
2022-10-08T16:24:47.359Z,17.80
2022-10-08T16:27:33.580Z,17.80
2022-10-08T16:30:20.268Z,17.80
2022-10-08T16:33:06.774Z,17.80
2022-10-08T16:35:53.462Z,17.70
2022-10-08T16:38:40.512Z,17.60
2022-10-08T16:41:30.045Z,17.50
2022-10-08T16:44:18.587Z,17.50
2022-10-08T16:47:05.135Z,17.40
2022-10-08T16:49:51.707Z,17.20
2022-10-08T16:52:38.497Z,16.90
2022-10-08T16:55:24.931Z,16.80
2022-10-08T16:58:12.733Z,16.90
2022-10-08T17:00:59.169Z,16.80
2022-10-08T17:03:46.232Z,16.80
2022-10-08T17:06:33.161Z,16.60
2022-10-08T17:09:20.383Z,16.50
2022-10-08T17:12:07.049Z,16.40
2022-10-08T17:14:54.857Z,16.30
2022-10-08T17:17:41.464Z,16.10
2022-10-08T17:20:29.155Z,15.90
2022-10-08T17:23:15.885Z,15.50
2022-10-08T17:26:05.300Z,15.20
2022-10-08T17:28:52.913Z,15.00
2022-10-08T17:31:41.211Z,15.00
2022-10-08T17:34:27.695Z,15.00
2022-10-08T17:37:14.072Z,15.00
2022-10-08T17:40:00.519Z,15.10
2022-10-08T17:42:47.070Z,15.30
2022-10-08T17:45:33.894Z,15.10
2022-10-08T17:48:21.691Z,15.00
2022-10-08T17:51:10.421Z,14.90
2022-10-08T17:53:58.772Z,14.90
2022-10-08T17:56:45.702Z,14.80
2022-10-08T17:59:32.343Z,14.90
2022-10-08T18:02:18.702Z,14.90
2022-10-08T18:05:07.096Z,15.00
2022-10-08T18:07:53.560Z,15.00
2022-10-08T18:10:40.012Z,14.70
2022-10-08T18:13:26.730Z,14.40
2022-10-08T18:16:15.188Z,14.50
2022-10-08T18:19:07.707Z,14.40
2022-10-08T18:21:56.593Z,14.20
2022-10-08T18:24:43.059Z,14.10
2022-10-08T18:27:29.483Z,14.00
2022-10-08T18:30:15.889Z,14.00
2022-10-08T18:33:02.253Z,13.90
2022-10-08T18:35:48.811Z,13.90
2022-10-08T18:38:36.627Z,13.80
2022-10-08T18:41:25.329Z,13.80
2022-10-08T18:44:13.877Z,13.80
2022-10-08T18:47:05.108Z,13.60
2022-10-08T18:49:51.955Z,13.50
2022-10-08T18:52:38.397Z,13.40
2022-10-08T18:55:26.111Z,13.50
2022-10-08T18:58:12.535Z,13.60
2022-10-08T19:00:59.302Z,13.40
2022-10-08T19:03:47.312Z,13.50
2022-10-08T19:06:35.881Z,13.30
2022-10-08T19:09:22.921Z,13.10
2022-10-08T19:12:10.888Z,13.00
2022-10-08T19:14:57.161Z,12.90
2022-10-08T19:17:43.674Z,12.90
2022-10-08T19:20:29.992Z,12.90
2022-10-08T19:23:16.448Z,13.10
2022-10-08T19:26:02.903Z,13.30
2022-10-08T19:28:54.057Z,13.40
2022-10-08T19:31:40.446Z,13.30
2022-10-08T19:34:28.196Z,13.20
2022-10-08T19:37:14.661Z,13.00
2022-10-08T19:40:01.081Z,12.90
2022-10-08T19:42:47.704Z,12.90
2022-10-08T19:45:36.533Z,13.10
2022-10-08T19:48:22.876Z,13.20
2022-10-08T19:51:11.642Z,13.00
2022-10-08T19:53:59.041Z,13.00
2022-10-08T19:56:45.845Z,12.80
2022-10-08T19:59:32.264Z,12.70
2022-10-08T20:02:20.447Z,12.90
2022-10-08T20:05:08.449Z,13.00
2022-10-08T20:07:55.188Z,12.90
2022-10-08T20:10:41.603Z,12.90
2022-10-08T20:13:28.149Z,12.70
2022-10-08T20:16:16.190Z,12.60
2022-10-08T20:19:06.687Z,12.70
2022-10-08T20:21:55.572Z,12.70
2022-10-08T20:24:42.398Z,12.80
2022-10-08T20:27:28.764Z,12.70
2022-10-08T20:30:16.278Z,12.50
2022-10-08T20:33:02.975Z,12.50
2022-10-08T20:35:50.861Z,12.50
2022-10-08T20:38:37.530Z,12.30
2022-10-08T20:41:30.385Z,12.30
2022-10-08T20:44:18.186Z,12.20
2022-10-08T20:47:04.531Z,11.90
2022-10-08T20:49:51.234Z,12.00
2022-10-08T20:52:39.237Z,12.00
2022-10-08T20:55:25.905Z,11.80
2022-10-08T20:58:12.358Z,12.10
2022-10-08T21:01:04.300Z,12.20
2022-10-08T21:03:51.864Z,12.40
2022-10-08T21:06:40.474Z,12.30
2022-10-08T21:09:28.517Z,12.30
2022-10-08T21:12:15.039Z,12.10
2022-10-08T21:15:01.543Z,12.00
2022-10-08T21:17:48.016Z,12.00
2022-10-08T21:20:37.197Z,11.90
2022-10-08T21:23:23.871Z,11.90
2022-10-08T21:26:14.440Z,11.90
2022-10-08T21:29:02.677Z,11.80
2022-10-08T21:31:49.876Z,11.60
2022-10-08T21:34:36.584Z,11.50
2022-10-08T21:37:23.089Z,11.60
2022-10-08T21:40:10.172Z,11.50
2022-10-08T21:42:58.050Z,11.70
2022-10-08T21:45:54.622Z,11.80
2022-10-08T21:48:42.131Z,11.80
2022-10-08T21:51:30.524Z,11.80
2022-10-08T21:54:17.642Z,11.50
2022-10-08T21:57:04.739Z,11.50
2022-10-08T21:59:52.685Z,11.30
2022-10-08T22:02:39.292Z,11.40
2022-10-08T22:05:29.777Z,11.40
2022-10-08T22:08:16.661Z,11.40
2022-10-08T22:11:05.957Z,11.40
2022-10-08T22:13:52.454Z,11.30
2022-10-08T22:16:40.459Z,11.40
2022-10-08T22:19:27.282Z,11.40
2022-10-08T22:22:13.628Z,11.40
2022-10-08T22:24:59.946Z,11.20
2022-10-08T22:27:46.401Z,10.90
2022-10-08T22:30:35.327Z,10.90
2022-10-08T22:33:23.161Z,10.50
2022-10-08T22:36:11.337Z,10.30
2022-10-08T22:38:59.024Z,10.20
2022-10-08T22:41:45.320Z,10.30
2022-10-08T22:44:31.770Z,10.40
2022-10-08T22:47:17.963Z,10.40
2022-10-08T22:50:06.552Z,10.20
2022-10-08T22:52:53.093Z,10.10
2022-10-08T22:55:41.765Z,10.10
2022-10-08T22:58:28.245Z,10.10
2022-10-08T23:01:16.786Z,10.30
2022-10-08T23:04:03.265Z,10.40
2022-10-08T23:06:50.770Z,10.50
2022-10-08T23:09:37.166Z,10.70
2022-10-08T23:12:23.823Z,10.80
2022-10-08T23:15:10.527Z,11.00
2022-10-08T23:17:57.257Z,11.00
2022-10-08T23:20:43.798Z,11.10
2022-10-08T23:23:31.747Z,11.00
2022-10-08T23:26:18.637Z,10.90
2022-10-08T23:29:06.051Z,11.00
2022-10-08T23:31:53.939Z,11.10
2022-10-08T23:34:40.256Z,11.20
2022-10-08T23:37:26.557Z,11.10
2022-10-08T23:40:14.462Z,10.90
2022-10-08T23:43:01.084Z,10.70
2022-10-08T23:45:47.538Z,10.60
2022-10-08T23:48:34.576Z,10.50
2022-10-08T23:51:21.744Z,10.40
2022-10-08T23:54:08.164Z,10.30
2022-10-08T23:56:55.908Z,10.30
2022-10-08T23:59:42.241Z,10.30
